sensor_id;sensor_type;location;lat;lon;timestamp;temperature;humidity
46900;DHT22;32647;49.382;7.078;2022-07-29T00:01:39;16.90;1.00
46900;DHT22;32647;49.382;7.078;2022-07-29T00:04:26;16.90;1.00
46900;DHT22;32647;49.382;7.078;2022-07-29T00:07:12;16.90;1.00
46900;DHT22;32647;49.382;7.078;2022-07-29T00:09:58;17.00;1.00
46900;DHT22;32647;49.382;7.078;2022-07-29T00:12:44;16.90;1.00
46900;DHT22;32647;49.382;7.078;2022-07-29T00:15:30;17.00;1.00
46900;DHT22;32647;49.382;7.078;2022-07-29T00:18:16;16.70;48.20
46900;DHT22;32647;49.382;7.078;2022-07-29T00:21:02;16.70;37.10
46900;DHT22;32647;49.382;7.078;2022-07-29T00:23:48;16.60;99.90
46900;DHT22;32647;49.382;7.078;2022-07-29T00:26:35;16.30;99.90
46900;DHT22;32647;49.382;7.078;2022-07-29T00:29:21;16.40;99.90
46900;DHT22;32647;49.382;7.078;2022-07-29T00:32:07;16.40;99.90
46900;DHT22;32647;49.382;7.078;2022-07-29T00:34:53;16.40;99.90
46900;DHT22;32647;49.382;7.078;2022-07-29T00:37:57;16.30;99.90
46900;DHT22;32647;49.382;7.078;2022-07-29T00:40:44;16.20;1.00
46900;DHT22;32647;49.382;7.078;2022-07-29T00:43:30;16.20;99.90
46900;DHT22;32647;49.382;7.078;2022-07-29T00:46:16;16.30;99.90
46900;DHT22;32647;49.382;7.078;2022-07-29T00:49:07;16.30;99.90
46900;DHT22;32647;49.382;7.078;2022-07-29T00:51:54;16.20;1.00
46900;DHT22;32647;49.382;7.078;2022-07-29T00:54:43;16.10;99.90
46900;DHT22;32647;49.382;7.078;2022-07-29T00:57:33;16.10;99.90
46900;DHT22;32647;49.382;7.078;2022-07-29T01:00:22;16.10;1.00
46900;DHT22;32647;49.382;7.078;2022-07-29T01:03:08;16.20;99.90
46900;DHT22;32647;49.382;7.078;2022-07-29T01:05:56;16.20;99.90
46900;DHT22;32647;49.382;7.078;2022-07-29T01:08:43;16.20;99.90
46900;DHT22;32647;49.382;7.078;2022-07-29T01:11:39;16.30;99.90
46900;DHT22;32647;49.382;7.078;2022-07-29T01:14:30;16.20;99.90
46900;DHT22;32647;49.382;7.078;2022-07-29T01:29:30;15.70;50.90
46900;DHT22;32647;49.382;7.078;2022-07-29T01:32:26;15.90;1.00
46900;DHT22;32647;49.382;7.078;2022-07-29T01:35:39;16.00;99.90
46900;DHT22;32647;49.382;7.078;2022-07-29T01:38:27;15.90;99.90
46900;DHT22;32647;49.382;7.078;2022-07-29T01:41:19;15.80;1.00
46900;DHT22;32647;49.382;7.078;2022-07-29T01:44:18;15.60;1.00
46900;DHT22;32647;49.382;7.078;2022-07-29T01:47:11;15.60;99.90
46900;DHT22;32647;49.382;7.078;2022-07-29T01:49:59;15.50;99.90
46900;DHT22;32647;49.382;7.078;2022-07-29T01:52:56;15.50;1.00
46900;DHT22;32647;49.382;7.078;2022-07-29T01:55:45;15.60;99.90
46900;DHT22;32647;49.382;7.078;2022-07-29T01:58:32;15.60;99.90
46900;DHT22;32647;49.382;7.078;2022-07-29T02:01:20;15.60;99.90
46900;DHT22;32647;49.382;7.078;2022-07-29T02:04:10;15.40;1.00
46900;DHT22;32647;49.382;7.078;2022-07-29T02:07:04;15.40;1.00
46900;DHT22;32647;49.382;7.078;2022-07-29T02:09:52;15.40;1.00
46900;DHT22;32647;49.382;7.078;2022-07-29T02:12:40;15.30;78.00
46900;DHT22;32647;49.382;7.078;2022-07-29T02:15:28;15.30;1.00
46900;DHT22;32647;49.382;7.078;2022-07-29T02:18:18;15.40;99.90
46900;DHT22;32647;49.382;7.078;2022-07-29T02:21:06;15.30;1.00
46900;DHT22;32647;49.382;7.078;2022-07-29T02:23:54;15.20;1.00
46900;DHT22;32647;49.382;7.078;2022-07-29T02:26:43;15.10;99.90
46900;DHT22;32647;49.382;7.078;2022-07-29T02:29:32;15.10;99.90
46900;DHT22;32647;49.382;7.078;2022-07-29T02:32:25;15.10;94.60
46900;DHT22;32647;49.382;7.078;2022-07-29T02:35:14;15.10;99.90
46900;DHT22;32647;49.382;7.078;2022-07-29T02:38:01;15.10;99.90
46900;DHT22;32647;49.382;7.078;2022-07-29T02:41:28;15.10;99.90
46900;DHT22;32647;49.382;7.078;2022-07-29T02:44:17;15.00;53.60
46900;DHT22;32647;49.382;7.078;2022-07-29T02:47:20;15.10;99.90
46900;DHT22;32647;49.382;7.078;2022-07-29T02:50:17;15.00;47.20
46900;DHT22;32647;49.382;7.078;2022-07-29T02:53:12;14.80;1.00
46900;DHT22;32647;49.382;7.078;2022-07-29T02:56:08;14.70;99.90
46900;DHT22;32647;49.382;7.078;2022-07-29T02:59:02;14.60;95.60
46900;DHT22;32647;49.382;7.078;2022-07-29T03:01:54;14.60;69.60
46900;DHT22;32647;49.382;7.078;2022-07-29T03:04:43;14.70;99.90
46900;DHT22;32647;49.382;7.078;2022-07-29T03:07:30;14.40;99.90
46900;DHT22;32647;49.382;7.078;2022-07-29T03:10:17;14.40;99.90
46900;DHT22;32647;49.382;7.078;2022-07-29T03:13:05;14.40;99.90
46900;DHT22;32647;49.382;7.078;2022-07-29T03:16:00;14.40;1.00
46900;DHT22;32647;49.382;7.078;2022-07-29T03:18:48;14.30;99.90
46900;DHT22;32647;49.382;7.078;2022-07-29T03:21:34;14.30;99.90
46900;DHT22;32647;49.382;7.078;2022-07-29T03:24:31;14.50;99.90
46900;DHT22;32647;49.382;7.078;2022-07-29T03:27:18;14.30;99.90
46900;DHT22;32647;49.382;7.078;2022-07-29T03:30:06;14.30;82.10
46900;DHT22;32647;49.382;7.078;2022-07-29T03:32:55;14.40;99.90
46900;DHT22;32647;49.382;7.078;2022-07-29T03:35:42;14.60;99.90
46900;DHT22;32647;49.382;7.078;2022-07-29T03:38:30;14.40;99.90
46900;DHT22;32647;49.382;7.078;2022-07-29T03:41:20;14.30;99.90
46900;DHT22;32647;49.382;7.078;2022-07-29T03:44:09;14.20;99.90
46900;DHT22;32647;49.382;7.078;2022-07-29T03:46:57;14.10;99.90
46900;DHT22;32647;49.382;7.078;2022-07-29T03:49:49;14.10;99.90
46900;DHT22;32647;49.382;7.078;2022-07-29T03:52:39;14.10;99.90
46900;DHT22;32647;49.382;7.078;2022-07-29T03:55:33;14.00;1.00
46900;DHT22;32647;49.382;7.078;2022-07-29T03:58:26;14.00;99.90
46900;DHT22;32647;49.382;7.078;2022-07-29T04:01:16;14.10;99.90
46900;DHT22;32647;49.382;7.078;2022-07-29T04:04:03;14.00;99.90
46900;DHT22;32647;49.382;7.078;2022-07-29T04:07:02;14.00;99.90
46900;DHT22;32647;49.382;7.078;2022-07-29T04:09:49;13.90;1.00
46900;DHT22;32647;49.382;7.078;2022-07-29T04:12:35;13.80;1.00
46900;DHT22;32647;49.382;7.078;2022-07-29T04:15:23;13.80;1.00
46900;DHT22;32647;49.382;7.078;2022-07-29T04:18:16;13.80;1.00
46900;DHT22;32647;49.382;7.078;2022-07-29T04:21:02;13.80;1.00
46900;DHT22;32647;49.382;7.078;2022-07-29T04:23:51;13.80;1.00
46900;DHT22;32647;49.382;7.078;2022-07-29T04:26:43;13.90;1.00
46900;DHT22;32647;49.382;7.078;2022-07-29T04:29:29;13.80;1.00
46900;DHT22;32647;49.382;7.078;2022-07-29T04:32:15;14.00;1.00
46900;DHT22;32647;49.382;7.078;2022-07-29T04:35:01;14.00;1.00
46900;DHT22;32647;49.382;7.078;2022-07-29T04:37:50;13.80;1.00
46900;DHT22;32647;49.382;7.078;2022-07-29T04:40:37;13.80;1.00
46900;DHT22;32647;49.382;7.078;2022-07-29T04:43:26;13.70;1.00
46900;DHT22;32647;49.382;7.078;2022-07-29T04:46:15;13.70;1.00
46900;DHT22;32647;49.382;7.078;2022-07-29T04:49:07;13.70;1.00
46900;DHT22;32647;49.382;7.078;2022-07-29T04:51:53;13.70;1.00
46900;DHT22;32647;49.382;7.078;2022-07-29T04:54:43;13.80;1.00
46900;DHT22;32647;49.382;7.078;2022-07-29T04:57:30;14.00;1.00
46900;DHT22;32647;49.382;7.078;2022-07-29T05:00:16;14.10;1.00
46900;DHT22;32647;49.382;7.078;2022-07-29T05:03:11;14.10;1.00
46900;DHT22;32647;49.382;7.078;2022-07-29T05:06:10;14.20;1.00
46900;DHT22;32647;49.382;7.078;2022-07-29T05:08:56;14.20;1.00
46900;DHT22;32647;49.382;7.078;2022-07-29T05:11:43;14.40;1.00
46900;DHT22;32647;49.382;7.078;2022-07-29T05:14:36;14.50;1.00
46900;DHT22;32647;49.382;7.078;2022-07-29T05:17:24;14.60;1.00
46900;DHT22;32647;49.382;7.078;2022-07-29T05:20:11;14.80;99.90
46900;DHT22;32647;49.382;7.078;2022-07-29T05:23:11;14.90;1.00
46900;DHT22;32647;49.382;7.078;2022-07-29T05:26:17;15.00;99.90
46900;DHT22;32647;49.382;7.078;2022-07-29T05:29:03;15.10;1.00
46900;DHT22;32647;49.382;7.078;2022-07-29T05:31:57;15.20;99.90
46900;DHT22;32647;49.382;7.078;2022-07-29T05:34:46;15.50;1.00
46900;DHT22;32647;49.382;7.078;2022-07-29T05:37:32;15.60;99.90
46900;DHT22;32647;49.382;7.078;2022-07-29T05:40:27;15.60;1.00
46900;DHT22;32647;49.382;7.078;2022-07-29T05:43:13;15.60;99.90
46900;DHT22;32647;49.382;7.078;2022-07-29T05:46:03;15.70;99.90
46900;DHT22;32647;49.382;7.078;2022-07-29T05:48:50;15.80;99.90
46900;DHT22;32647;49.382;7.078;2022-07-29T05:51:36;15.90;99.90
46900;DHT22;32647;49.382;7.078;2022-07-29T05:54:22;16.20;99.90
46900;DHT22;32647;49.382;7.078;2022-07-29T05:57:08;16.30;99.90
46900;DHT22;32647;49.382;7.078;2022-07-29T05:59:54;16.40;99.90
46900;DHT22;32647;49.382;7.078;2022-07-29T06:02:43;16.60;99.90
46900;DHT22;32647;49.382;7.078;2022-07-29T06:05:30;16.70;1.00
46900;DHT22;32647;49.382;7.078;2022-07-29T06:08:22;16.80;1.00
46900;DHT22;32647;49.382;7.078;2022-07-29T06:11:08;17.00;1.00
46900;DHT22;32647;49.382;7.078;2022-07-29T06:13:58;17.00;1.00
46900;DHT22;32647;49.382;7.078;2022-07-29T06:16:54;17.20;99.90
46900;DHT22;32647;49.382;7.078;2022-07-29T06:19:41;17.30;99.90
46900;DHT22;32647;49.382;7.078;2022-07-29T06:22:28;17.30;1.00
46900;DHT22;32647;49.382;7.078;2022-07-29T06:25:14;17.50;99.90
46900;DHT22;32647;49.382;7.078;2022-07-29T06:28:06;17.60;99.90
46900;DHT22;32647;49.382;7.078;2022-07-29T06:31:03;17.80;99.90
46900;DHT22;32647;49.382;7.078;2022-07-29T06:33:49;17.90;99.90
46900;DHT22;32647;49.382;7.078;2022-07-29T06:36:35;18.00;99.90
46900;DHT22;32647;49.382;7.078;2022-07-29T06:39:25;18.20;7.60
46900;DHT22;32647;49.382;7.078;2022-07-29T06:42:34;18.40;1.00
46900;DHT22;32647;49.382;7.078;2022-07-29T06:45:23;18.60;1.00
46900;DHT22;32647;49.382;7.078;2022-07-29T06:48:09;18.70;1.00
46900;DHT22;32647;49.382;7.078;2022-07-29T06:50:56;18.90;1.00
46900;DHT22;32647;49.382;7.078;2022-07-29T06:53:42;19.20;1.00
46900;DHT22;32647;49.382;7.078;2022-07-29T06:56:31;19.50;1.00
46900;DHT22;32647;49.382;7.078;2022-07-29T06:59:17;19.70;1.00
46900;DHT22;32647;49.382;7.078;2022-07-29T07:02:03;19.80;99.90
46900;DHT22;32647;49.382;7.078;2022-07-29T07:04:49;19.80;99.90
46900;DHT22;32647;49.382;7.078;2022-07-29T07:07:35;19.80;99.90
46900;DHT22;32647;49.382;7.078;2022-07-29T07:10:21;19.70;99.90
46900;DHT22;32647;49.382;7.078;2022-07-29T07:13:07;19.80;99.90
46900;DHT22;32647;49.382;7.078;2022-07-29T07:15:53;19.80;99.90
46900;DHT22;32647;49.382;7.078;2022-07-29T07:18:40;19.90;99.90
46900;DHT22;32647;49.382;7.078;2022-07-29T07:21:26;20.00;99.90
46900;DHT22;32647;49.382;7.078;2022-07-29T07:24:12;20.00;99.90
46900;DHT22;32647;49.382;7.078;2022-07-29T07:26:58;20.10;99.90
46900;DHT22;32647;49.382;7.078;2022-07-29T07:29:44;20.30;99.90
46900;DHT22;32647;49.382;7.078;2022-07-29T07:32:30;20.60;99.90
46900;DHT22;32647;49.382;7.078;2022-07-29T07:35:16;20.70;99.90
46900;DHT22;32647;49.382;7.078;2022-07-29T07:38:02;20.70;99.90
46900;DHT22;32647;49.382;7.078;2022-07-29T07:40:48;20.70;99.90
46900;DHT22;32647;49.382;7.078;2022-07-29T07:43:34;20.80;99.90
46900;DHT22;32647;49.382;7.078;2022-07-29T07:46:20;21.00;99.90
46900;DHT22;32647;49.382;7.078;2022-07-29T07:49:06;21.10;99.90
46900;DHT22;32647;49.382;7.078;2022-07-29T07:51:52;21.30;99.90
46900;DHT22;32647;49.382;7.078;2022-07-29T07:54:38;21.60;99.90
46900;DHT22;32647;49.382;7.078;2022-07-29T07:57:24;21.80;99.90
46900;DHT22;32647;49.382;7.078;2022-07-29T08:00:12;22.00;99.90
46900;DHT22;32647;49.382;7.078;2022-07-29T08:02:58;22.20;99.90
46900;DHT22;32647;49.382;7.078;2022-07-29T08:05:44;22.50;99.90
46900;DHT22;32647;49.382;7.078;2022-07-29T08:08:30;22.60;99.90
46900;DHT22;32647;49.382;7.078;2022-07-29T08:11:16;22.90;99.90
46900;DHT22;32647;49.382;7.078;2022-07-29T08:14:02;23.10;99.90
46900;DHT22;32647;49.382;7.078;2022-07-29T08:16:48;23.20;99.90
46900;DHT22;32647;49.382;7.078;2022-07-29T08:19:34;23.50;99.90
46900;DHT22;32647;49.382;7.078;2022-07-29T08:22:22;23.40;99.90
46900;DHT22;32647;49.382;7.078;2022-07-29T08:25:08;23.00;99.90
46900;DHT22;32647;49.382;7.078;2022-07-29T08:27:54;23.00;99.90
46900;DHT22;32647;49.382;7.078;2022-07-29T08:30:40;23.30;99.90
46900;DHT22;32647;49.382;7.078;2022-07-29T08:33:26;23.50;99.90
46900;DHT22;32647;49.382;7.078;2022-07-29T08:36:12;23.80;99.90
46900;DHT22;32647;49.382;7.078;2022-07-29T08:38:59;23.90;99.90
46900;DHT22;32647;49.382;7.078;2022-07-29T08:41:45;23.90;99.90
46900;DHT22;32647;49.382;7.078;2022-07-29T08:44:31;23.80;99.90
46900;DHT22;32647;49.382;7.078;2022-07-29T08:47:18;24.00;99.90
46900;DHT22;32647;49.382;7.078;2022-07-29T08:50:05;24.20;99.90
46900;DHT22;32647;49.382;7.078;2022-07-29T08:52:51;23.90;99.90
46900;DHT22;32647;49.382;7.078;2022-07-29T08:55:43;24.10;99.90
46900;DHT22;32647;49.382;7.078;2022-07-29T08:58:32;24.30;99.90
46900;DHT22;32647;49.382;7.078;2022-07-29T09:01:23;24.70;99.90
46900;DHT22;32647;49.382;7.078;2022-07-29T09:04:11;25.10;99.90
46900;DHT22;32647;49.382;7.078;2022-07-29T09:06:59;25.30;99.90
46900;DHT22;32647;49.382;7.078;2022-07-29T09:09:46;25.50;99.90
46900;DHT22;32647;49.382;7.078;2022-07-29T09:12:32;25.70;99.90
46900;DHT22;32647;49.382;7.078;2022-07-29T09:15:19;26.00;99.90
46900;DHT22;32647;49.382;7.078;2022-07-29T09:18:05;26.00;99.90
46900;DHT22;32647;49.382;7.078;2022-07-29T09:20:54;26.10;99.90
46900;DHT22;32647;49.382;7.078;2022-07-29T09:24:10;26.40;99.90
46900;DHT22;32647;49.382;7.078;2022-07-29T09:26:57;26.20;99.90
46900;DHT22;32647;49.382;7.078;2022-07-29T09:29:43;26.30;99.90
46900;DHT22;32647;49.382;7.078;2022-07-29T09:32:29;26.80;99.90
46900;DHT22;32647;49.382;7.078;2022-07-29T09:35:20;26.70;99.90
46900;DHT22;32647;49.382;7.078;2022-07-29T09:38:14;26.60;99.90
46900;DHT22;32647;49.382;7.078;2022-07-29T09:41:01;27.20;99.90
46900;DHT22;32647;49.382;7.078;2022-07-29T09:43:58;26.60;99.90
46900;DHT22;32647;49.382;7.078;2022-07-29T09:47:02;26.40;99.90
46900;DHT22;32647;49.382;7.078;2022-07-29T09:52:51;26.30;99.90
46900;DHT22;32647;49.382;7.078;2022-07-29T09:55:51;27.10;99.90
46900;DHT22;32647;49.382;7.078;2022-07-29T09:58:37;27.60;99.90
46900;DHT22;32647;49.382;7.078;2022-07-29T10:01:29;27.50;99.90
46900;DHT22;32647;49.382;7.078;2022-07-29T10:04:16;27.90;99.90
46900;DHT22;32647;49.382;7.078;2022-07-29T10:07:03;27.90;99.90
46900;DHT22;32647;49.382;7.078;2022-07-29T10:09:55;28.10;99.90
46900;DHT22;32647;49.382;7.078;2022-07-29T10:12:53;28.30;99.90
46900;DHT22;32647;49.382;7.078;2022-07-29T10:15:41;28.60;99.90
46900;DHT22;32647;49.382;7.078;2022-07-29T10:18:30;28.50;99.90
46900;DHT22;32647;49.382;7.078;2022-07-29T10:21:16;28.60;99.90
46900;DHT22;32647;49.382;7.078;2022-07-29T10:24:04;28.60;99.90
46900;DHT22;32647;49.382;7.078;2022-07-29T10:26:50;28.80;99.90
46900;DHT22;32647;49.382;7.078;2022-07-29T10:29:37;28.90;99.90
46900;DHT22;32647;49.382;7.078;2022-07-29T10:32:54;28.80;99.90
46900;DHT22;32647;49.382;7.078;2022-07-29T10:36:22;29.10;99.90
46900;DHT22;32647;49.382;7.078;2022-07-29T10:42:21;29.10;99.90
46900;DHT22;32647;49.382;7.078;2022-07-29T10:45:09;28.50;99.90
46900;DHT22;32647;49.382;7.078;2022-07-29T10:48:05;28.40;99.90
46900;DHT22;32647;49.382;7.078;2022-07-29T10:51:10;28.90;99.90
46900;DHT22;32647;49.382;7.078;2022-07-29T10:53:56;29.10;99.90
46900;DHT22;32647;49.382;7.078;2022-07-29T10:56:48;29.10;99.90
46900;DHT22;32647;49.382;7.078;2022-07-29T10:59:34;28.90;99.90
46900;DHT22;32647;49.382;7.078;2022-07-29T11:05:19;28.50;99.90
46900;DHT22;32647;49.382;7.078;2022-07-29T11:14:07;28.10;99.90
46900;DHT22;32647;49.382;7.078;2022-07-29T11:17:05;28.30;99.90
46900;DHT22;32647;49.382;7.078;2022-07-29T11:19:51;28.60;99.90
46900;DHT22;32647;49.382;7.078;2022-07-29T11:22:37;28.80;99.90
46900;DHT22;32647;49.382;7.078;2022-07-29T11:25:23;29.10;99.90
46900;DHT22;32647;49.382;7.078;2022-07-29T11:28:15;28.60;99.90
46900;DHT22;32647;49.382;7.078;2022-07-29T11:31:02;28.40;99.90
46900;DHT22;32647;49.382;7.078;2022-07-29T11:33:49;28.90;99.90
46900;DHT22;32647;49.382;7.078;2022-07-29T11:36:35;29.30;99.90
46900;DHT22;32647;49.382;7.078;2022-07-29T11:39:27;29.10;99.90
46900;DHT22;32647;49.382;7.078;2022-07-29T11:47:54;28.80;99.90
46900;DHT22;32647;49.382;7.078;2022-07-29T11:50:40;29.40;99.90
46900;DHT22;32647;49.382;7.078;2022-07-29T11:53:27;29.70;99.90
46900;DHT22;32647;49.382;7.078;2022-07-29T11:56:13;29.80;99.90
46900;DHT22;32647;49.382;7.078;2022-07-29T11:59:04;30.20;99.90
46900;DHT22;32647;49.382;7.078;2022-07-29T12:01:59;29.70;99.90
46900;DHT22;32647;49.382;7.078;2022-07-29T12:04:52;30.50;99.90
46900;DHT22;32647;49.382;7.078;2022-07-29T12:07:39;30.90;99.90
46900;DHT22;32647;49.382;7.078;2022-07-29T12:10:30;31.10;99.90
46900;DHT22;32647;49.382;7.078;2022-07-29T12:13:18;30.00;99.90
46900;DHT22;32647;49.382;7.078;2022-07-29T12:16:04;29.30;99.90
46900;DHT22;32647;49.382;7.078;2022-07-29T12:18:58;29.60;99.90
46900;DHT22;32647;49.382;7.078;2022-07-29T12:21:49;29.70;99.90
46900;DHT22;32647;49.382;7.078;2022-07-29T12:24:45;29.50;99.90
46900;DHT22;32647;49.382;7.078;2022-07-29T12:27:31;29.30;99.90
46900;DHT22;32647;49.382;7.078;2022-07-29T12:30:18;28.90;99.90
46900;DHT22;32647;49.382;7.078;2022-07-29T12:33:15;28.80;99.90
46900;DHT22;32647;49.382;7.078;2022-07-29T12:36:02;28.80;99.90
46900;DHT22;32647;49.382;7.078;2022-07-29T12:38:49;28.70;99.90
46900;DHT22;32647;49.382;7.078;2022-07-29T12:41:35;28.50;99.90
46900;DHT22;32647;49.382;7.078;2022-07-29T12:44:21;28.20;99.90
46900;DHT22;32647;49.382;7.078;2022-07-29T12:47:07;28.50;99.90
46900;DHT22;32647;49.382;7.078;2022-07-29T12:50:13;28.40;99.90
46900;DHT22;32647;49.382;7.078;2022-07-29T12:53:13;28.50;99.90
46900;DHT22;32647;49.382;7.078;2022-07-29T12:55:59;28.50;99.90
46900;DHT22;32647;49.382;7.078;2022-07-29T12:58:47;28.10;99.90
46900;DHT22;32647;49.382;7.078;2022-07-29T13:01:36;28.20;99.90
46900;DHT22;32647;49.382;7.078;2022-07-29T13:04:28;28.30;99.90
46900;DHT22;32647;49.382;7.078;2022-07-29T13:07:24;27.60;99.90
46900;DHT22;32647;49.382;7.078;2022-07-29T13:10:19;27.10;99.90
46900;DHT22;32647;49.382;7.078;2022-07-29T13:13:08;27.00;99.90
46900;DHT22;32647;49.382;7.078;2022-07-29T13:16:15;27.30;99.90
46900;DHT22;32647;49.382;7.078;2022-07-29T13:19:11;27.90;99.90
46900;DHT22;32647;49.382;7.078;2022-07-29T13:21:57;28.90;99.90
46900;DHT22;32647;49.382;7.078;2022-07-29T13:25:00;29.80;99.90
46900;DHT22;32647;49.382;7.078;2022-07-29T13:27:50;29.50;99.90
46900;DHT22;32647;49.382;7.078;2022-07-29T13:30:36;29.60;99.90
46900;DHT22;32647;49.382;7.078;2022-07-29T13:33:23;28.90;99.90
46900;DHT22;32647;49.382;7.078;2022-07-29T13:36:10;29.00;99.90
46900;DHT22;32647;49.382;7.078;2022-07-29T13:38:56;30.50;99.90
46900;DHT22;32647;49.382;7.078;2022-07-29T13:41:42;31.30;99.90
46900;DHT22;32647;49.382;7.078;2022-07-29T13:44:28;31.10;99.90
46900;DHT22;32647;49.382;7.078;2022-07-29T13:47:14;31.60;99.90
46900;DHT22;32647;49.382;7.078;2022-07-29T13:50:05;32.10;99.90
46900;DHT22;32647;49.382;7.078;2022-07-29T13:52:51;32.30;99.90
46900;DHT22;32647;49.382;7.078;2022-07-29T13:55:37;30.80;99.90
46900;DHT22;32647;49.382;7.078;2022-07-29T13:58:23;29.30;99.90
46900;DHT22;32647;49.382;7.078;2022-07-29T14:01:09;29.10;99.90
46900;DHT22;32647;49.382;7.078;2022-07-29T14:03:55;29.30;99.90
46900;DHT22;32647;49.382;7.078;2022-07-29T14:06:41;30.40;99.90
46900;DHT22;32647;49.382;7.078;2022-07-29T14:09:27;30.90;99.90
46900;DHT22;32647;49.382;7.078;2022-07-29T14:12:13;31.60;99.90
46900;DHT22;32647;49.382;7.078;2022-07-29T14:14:59;31.30;99.90
46900;DHT22;32647;49.382;7.078;2022-07-29T14:17:45;31.40;99.90
46900;DHT22;32647;49.382;7.078;2022-07-29T14:20:31;31.60;99.90
46900;DHT22;32647;49.382;7.078;2022-07-29T14:23:18;31.40;99.90
46900;DHT22;32647;49.382;7.078;2022-07-29T14:26:05;31.50;99.90
46900;DHT22;32647;49.382;7.078;2022-07-29T14:28:51;31.80;99.90
46900;DHT22;32647;49.382;7.078;2022-07-29T14:31:37;31.70;99.90
46900;DHT22;32647;49.382;7.078;2022-07-29T14:34:23;31.90;99.90
46900;DHT22;32647;49.382;7.078;2022-07-29T14:37:09;31.90;99.90
46900;DHT22;32647;49.382;7.078;2022-07-29T14:39:55;31.20;99.90
46900;DHT22;32647;49.382;7.078;2022-07-29T14:42:45;30.40;99.90
46900;DHT22;32647;49.382;7.078;2022-07-29T14:45:31;29.20;99.90
46900;DHT22;32647;49.382;7.078;2022-07-29T14:48:17;29.70;99.90
46900;DHT22;32647;49.382;7.078;2022-07-29T14:51:03;30.50;99.90
46900;DHT22;32647;49.382;7.078;2022-07-29T14:53:49;30.90;99.90
46900;DHT22;32647;49.382;7.078;2022-07-29T14:56:35;30.30;99.90
46900;DHT22;32647;49.382;7.078;2022-07-29T14:59:21;31.20;99.90
46900;DHT22;32647;49.382;7.078;2022-07-29T15:02:08;31.60;99.90
46900;DHT22;32647;49.382;7.078;2022-07-29T15:04:54;31.10;99.90
46900;DHT22;32647;49.382;7.078;2022-07-29T15:07:40;29.60;99.90
46900;DHT22;32647;49.382;7.078;2022-07-29T15:10:26;29.10;99.90
46900;DHT22;32647;49.382;7.078;2022-07-29T15:13:12;30.20;99.90
46900;DHT22;32647;49.382;7.078;2022-07-29T15:15:58;29.90;99.90
46900;DHT22;32647;49.382;7.078;2022-07-29T15:18:45;30.20;99.90
46900;DHT22;32647;49.382;7.078;2022-07-29T15:21:31;30.50;99.90
46900;DHT22;32647;49.382;7.078;2022-07-29T15:24:17;30.80;99.90
46900;DHT22;32647;49.382;7.078;2022-07-29T15:27:07;30.60;99.90
46900;DHT22;32647;49.382;7.078;2022-07-29T15:29:52;30.30;99.90
46900;DHT22;32647;49.382;7.078;2022-07-29T15:32:38;29.50;99.90
46900;DHT22;32647;49.382;7.078;2022-07-29T15:35:24;28.70;99.90
46900;DHT22;32647;49.382;7.078;2022-07-29T15:38:12;29.30;99.90
46900;DHT22;32647;49.382;7.078;2022-07-29T15:40:58;29.80;99.90
46900;DHT22;32647;49.382;7.078;2022-07-29T15:43:44;29.30;99.90
46900;DHT22;32647;49.382;7.078;2022-07-29T15:46:32;28.80;99.90
46900;DHT22;32647;49.382;7.078;2022-07-29T15:49:39;28.60;99.90
46900;DHT22;32647;49.382;7.078;2022-07-29T15:52:25;28.50;99.90
46900;DHT22;32647;49.382;7.078;2022-07-29T15:55:11;28.60;99.90
46900;DHT22;32647;49.382;7.078;2022-07-29T15:57:57;28.40;99.90
46900;DHT22;32647;49.382;7.078;2022-07-29T16:00:43;29.00;99.90
46900;DHT22;32647;49.382;7.078;2022-07-29T16:03:29;29.50;99.90
46900;DHT22;32647;49.382;7.078;2022-07-29T16:06:15;28.90;99.90
46900;DHT22;32647;49.382;7.078;2022-07-29T16:09:03;29.50;99.90
46900;DHT22;32647;49.382;7.078;2022-07-29T16:11:52;29.90;99.90
46900;DHT22;32647;49.382;7.078;2022-07-29T16:14:46;29.80;99.90
46900;DHT22;32647;49.382;7.078;2022-07-29T16:17:39;30.00;99.90
46900;DHT22;32647;49.382;7.078;2022-07-29T16:20:25;30.10;99.90
46900;DHT22;32647;49.382;7.078;2022-07-29T16:23:20;30.20;99.90
46900;DHT22;32647;49.382;7.078;2022-07-29T16:26:09;30.40;99.90
46900;DHT22;32647;49.382;7.078;2022-07-29T16:28:55;30.40;99.90
46900;DHT22;32647;49.382;7.078;2022-07-29T16:31:41;30.00;99.90
46900;DHT22;32647;49.382;7.078;2022-07-29T16:34:32;29.30;99.90
46900;DHT22;32647;49.382;7.078;2022-07-29T16:37:18;29.20;99.90
46900;DHT22;32647;49.382;7.078;2022-07-29T16:40:07;29.50;99.90
46900;DHT22;32647;49.382;7.078;2022-07-29T16:42:53;29.70;99.90
46900;DHT22;32647;49.382;7.078;2022-07-29T16:45:42;29.70;99.90
46900;DHT22;32647;49.382;7.078;2022-07-29T16:48:28;29.80;99.90
46900;DHT22;32647;49.382;7.078;2022-07-29T16:51:14;29.50;99.90
46900;DHT22;32647;49.382;7.078;2022-07-29T16:54:00;28.70;99.90
46900;DHT22;32647;49.382;7.078;2022-07-29T16:56:46;28.00;99.90
46900;DHT22;32647;49.382;7.078;2022-07-29T16:59:33;27.50;99.90
46900;DHT22;32647;49.382;7.078;2022-07-29T17:02:22;27.20;99.90
46900;DHT22;32647;49.382;7.078;2022-07-29T17:05:14;26.90;99.90
46900;DHT22;32647;49.382;7.078;2022-07-29T17:08:00;26.90;99.90
46900;DHT22;32647;49.382;7.078;2022-07-29T17:10:48;27.30;99.90
46900;DHT22;32647;49.382;7.078;2022-07-29T17:13:34;27.40;99.90
46900;DHT22;32647;49.382;7.078;2022-07-29T17:16:20;27.10;99.90
46900;DHT22;32647;49.382;7.078;2022-07-29T17:19:09;27.20;99.90
46900;DHT22;32647;49.382;7.078;2022-07-29T17:22:02;26.80;99.90
46900;DHT22;32647;49.382;7.078;2022-07-29T17:24:51;27.10;99.90
46900;DHT22;32647;49.382;7.078;2022-07-29T17:27:43;27.20;99.90
46900;DHT22;32647;49.382;7.078;2022-07-29T17:30:32;26.90;99.90
46900;DHT22;32647;49.382;7.078;2022-07-29T17:33:18;26.70;99.90
46900;DHT22;32647;49.382;7.078;2022-07-29T17:36:07;26.50;99.90
46900;DHT22;32647;49.382;7.078;2022-07-29T17:39:13;26.40;99.90
46900;DHT22;32647;49.382;7.078;2022-07-29T17:42:00;26.40;99.90
46900;DHT22;32647;49.382;7.078;2022-07-29T17:44:46;26.30;99.90
46900;DHT22;32647;49.382;7.078;2022-07-29T17:47:34;26.30;99.90
46900;DHT22;32647;49.382;7.078;2022-07-29T17:50:22;26.40;99.90
46900;DHT22;32647;49.382;7.078;2022-07-29T17:53:08;26.40;99.90
46900;DHT22;32647;49.382;7.078;2022-07-29T17:55:55;26.30;99.90
46900;DHT22;32647;49.382;7.078;2022-07-29T17:58:45;26.30;99.90
46900;DHT22;32647;49.382;7.078;2022-07-29T18:01:35;26.30;99.90
46900;DHT22;32647;49.382;7.078;2022-07-29T18:04:25;26.20;99.90
46900;DHT22;32647;49.382;7.078;2022-07-29T18:07:13;26.10;99.90
46900;DHT22;32647;49.382;7.078;2022-07-29T18:09:59;26.60;99.90
46900;DHT22;32647;49.382;7.078;2022-07-29T18:12:45;26.50;99.90
46900;DHT22;32647;49.382;7.078;2022-07-29T18:15:31;26.00;99.90
46900;DHT22;32647;49.382;7.078;2022-07-29T18:18:17;25.80;99.90
46900;DHT22;32647;49.382;7.078;2022-07-29T18:21:06;25.60;99.90
46900;DHT22;32647;49.382;7.078;2022-07-29T18:23:55;25.50;99.90